createdAt,value
2023-05-28T00:00:47.851Z,3.83
2023-05-28T00:03:18.638Z,3.87
2023-05-28T00:05:46.728Z,3.73
2023-05-28T00:08:15.520Z,3.67
2023-05-28T00:10:43.960Z,3.93
2023-05-28T00:13:11.355Z,3.83
2023-05-28T00:15:39.080Z,3.80
2023-05-28T00:18:06.575Z,4.10
2023-05-28T00:20:34.342Z,4.07
2023-05-28T00:23:01.951Z,3.83
2023-05-28T00:25:29.462Z,4.07
2023-05-28T00:27:57.158Z,4.20
2023-05-28T00:30:26.337Z,4.07
2023-05-28T00:32:53.678Z,4.40
2023-05-28T00:35:21.138Z,3.93
2023-05-28T00:37:48.657Z,4.40
2023-05-28T00:40:19.087Z,4.50
2023-05-28T00:42:47.267Z,4.47
2023-05-28T00:45:15.236Z,4.00
2023-05-28T00:47:43.643Z,3.70
2023-05-28T00:50:14.062Z,3.87
2023-05-28T00:52:42.311Z,3.90
2023-05-28T00:55:15.676Z,4.20
2023-05-28T00:57:44.020Z,4.50
2023-05-28T01:00:12.380Z,3.30
2023-05-28T01:02:40.174Z,3.67
2023-05-28T01:05:09.231Z,4.50
2023-05-28T01:07:37.134Z,3.53
2023-05-28T01:10:05.069Z,3.77
2023-05-28T01:12:32.839Z,4.17
2023-05-28T01:15:00.511Z,4.10
2023-05-28T01:17:28.634Z,4.03
2023-05-28T01:20:06.642Z,3.97
2023-05-28T01:22:41.461Z,3.60
2023-05-28T01:25:12.014Z,4.30
2023-05-28T01:27:40.952Z,4.53
2023-05-28T01:30:13.097Z,4.20
2023-05-28T01:32:41.676Z,4.53
2023-05-28T01:35:10.670Z,3.83
2023-05-28T01:37:46.640Z,4.10
2023-05-28T01:40:15.815Z,3.93
2023-05-28T01:42:45.062Z,3.97
2023-05-28T01:45:16.261Z,4.03
2023-05-28T01:47:46.517Z,3.63
2023-05-28T01:50:14.692Z,4.33
2023-05-28T01:52:42.184Z,3.60
2023-05-28T01:55:15.654Z,3.90
2023-05-28T01:57:45.317Z,3.60
2023-05-28T02:00:15.667Z,4.20
2023-05-28T02:02:43.915Z,4.30
2023-05-28T02:05:14.256Z,3.80
2023-05-28T02:07:43.338Z,3.70
2023-05-28T02:10:10.894Z,4.00
2023-05-28T02:12:38.214Z,4.53
2023-05-28T02:15:06.386Z,3.67
2023-05-28T02:17:34.654Z,4.47
2023-05-28T02:20:03.341Z,3.97
2023-05-28T02:22:30.766Z,4.00
2023-05-28T02:24:58.268Z,4.00
2023-05-28T02:27:25.934Z,4.47
2023-05-28T02:29:53.294Z,4.40
2023-05-28T02:32:20.759Z,3.70
2023-05-28T02:34:50.704Z,4.30
2023-05-28T02:37:18.178Z,4.20
2023-05-28T02:39:45.637Z,4.13
2023-05-28T02:42:13.040Z,4.00
2023-05-28T02:44:40.470Z,4.30
2023-05-28T02:47:09.082Z,4.07
2023-05-28T02:49:37.963Z,3.97
2023-05-28T02:52:05.972Z,4.20
2023-05-28T02:54:39.992Z,3.97
2023-05-28T02:57:07.329Z,3.80
2023-05-28T02:59:34.955Z,4.40
2023-05-28T03:02:02.338Z,3.87
2023-05-28T03:04:29.721Z,4.20
2023-05-28T03:06:57.752Z,3.90
2023-05-28T03:09:25.250Z,4.30
2023-05-28T03:11:54.027Z,3.73
2023-05-28T03:14:22.124Z,4.17
2023-05-28T03:16:49.480Z,4.00
2023-05-28T03:19:23.837Z,3.77
2023-05-28T03:21:51.721Z,3.97
2023-05-28T03:24:21.460Z,4.10
2023-05-28T03:26:53.340Z,4.43
2023-05-28T03:29:24.455Z,4.13
2023-05-28T03:32:00.129Z,4.23
2023-05-28T03:34:28.059Z,4.00
2023-05-28T03:36:55.554Z,3.70
2023-05-28T03:39:24.444Z,3.97
2023-05-28T03:41:53.327Z,4.43
2023-05-28T03:44:23.334Z,3.77
2023-05-28T03:46:51.459Z,3.83
2023-05-28T03:49:18.911Z,4.50
2023-05-28T03:51:46.683Z,3.80
2023-05-28T03:54:14.140Z,4.13
2023-05-28T03:56:41.502Z,3.80
2023-05-28T03:59:09.280Z,4.00
2023-05-28T04:01:37.900Z,3.97
2023-05-28T04:04:07.608Z,3.80
2023-05-28T04:06:35.341Z,3.70
2023-05-28T04:09:02.906Z,3.53
2023-05-28T04:11:31.625Z,3.80
2023-05-28T04:14:00.522Z,4.07
2023-05-28T04:16:29.198Z,3.83
2023-05-28T04:18:57.813Z,4.00
2023-05-28T04:21:25.378Z,4.30
2023-05-28T04:23:52.735Z,3.90
2023-05-28T04:26:21.621Z,4.10
2023-05-28T04:28:49.868Z,3.17
2023-05-28T04:31:17.961Z,3.70
2023-05-28T04:33:47.449Z,3.73
2023-05-28T04:36:15.422Z,3.87
2023-05-28T04:38:44.340Z,3.23
2023-05-28T04:41:15.269Z,3.97
2023-05-28T04:43:42.758Z,6.30
2023-05-28T04:46:11.186Z,3.73
2023-05-28T04:48:38.679Z,4.13
2023-05-28T04:51:08.326Z,3.97
2023-05-28T04:53:36.154Z,4.03
2023-05-28T04:56:05.154Z,3.43
2023-05-28T04:58:33.629Z,3.57
2023-05-28T05:01:01.525Z,4.03
2023-05-28T05:03:32.953Z,3.97
2023-05-28T05:06:02.420Z,3.60
2023-05-28T05:08:30.043Z,4.10
2023-05-28T05:10:57.551Z,3.70
2023-05-28T05:13:24.952Z,4.10
2023-05-28T05:15:53.374Z,3.43
2023-05-28T05:18:22.303Z,4.00
2023-05-28T05:20:49.995Z,3.80
2023-05-28T05:23:19.113Z,3.60
2023-05-28T05:25:49.369Z,3.57
2023-05-28T05:28:16.764Z,4.07
2023-05-28T05:30:44.843Z,3.53
2023-05-28T05:33:12.681Z,3.83
2023-05-28T05:36:00.061Z,3.67
2023-05-28T05:38:41.251Z,3.80
2023-05-28T05:41:28.940Z,4.13
2023-05-28T05:44:09.483Z,3.93
2023-05-28T05:46:37.275Z,3.90
2023-05-28T05:49:04.743Z,4.27
2023-05-28T05:51:33.758Z,3.93
2023-05-28T05:54:04.371Z,4.20
2023-05-28T05:56:32.083Z,4.30
2023-05-28T05:59:01.496Z,3.70
2023-05-28T06:01:31.607Z,4.17
2023-05-28T06:04:00.575Z,4.23
2023-05-28T06:06:51.119Z,3.53
2023-05-28T06:09:47.173Z,3.97
2023-05-28T06:12:22.543Z,3.87
2023-05-28T06:14:52.988Z,3.53
2023-05-28T06:17:22.219Z,3.70
2023-05-28T06:19:52.120Z,4.13
2023-05-28T06:22:20.293Z,3.73
2023-05-28T06:24:51.182Z,3.67
2023-05-28T06:27:21.072Z,4.00
2023-05-28T06:29:48.695Z,3.67
2023-05-28T06:32:16.038Z,3.60
2023-05-28T06:34:44.672Z,3.73
2023-05-28T06:37:13.976Z,4.30
2023-05-28T06:39:42.454Z,3.70
2023-05-28T06:42:10.123Z,4.80
2023-05-28T06:44:40.835Z,4.47
2023-05-28T06:47:17.034Z,3.60
2023-05-28T06:49:45.378Z,4.13
2023-05-28T06:52:13.008Z,3.70
2023-05-28T06:54:41.939Z,3.70
2023-05-28T06:57:10.806Z,3.90
2023-05-28T06:59:55.459Z,5.27
2023-05-28T07:02:42.274Z,3.80
2023-05-28T07:05:23.991Z,3.50
2023-05-28T07:07:52.071Z,3.80
2023-05-28T07:10:21.182Z,4.10
2023-05-28T07:12:49.698Z,4.13
2023-05-28T07:15:18.584Z,4.10
2023-05-28T07:17:47.403Z,4.87
2023-05-28T07:20:14.995Z,4.10
2023-05-28T07:22:52.785Z,4.28
2023-05-28T07:25:20.710Z,4.20
2023-05-28T07:27:48.032Z,4.37
2023-05-28T07:30:23.672Z,4.10
2023-05-28T07:32:52.938Z,4.70
2023-05-28T07:35:21.865Z,4.20
2023-05-28T07:37:49.327Z,4.37
2023-05-28T07:40:17.961Z,4.73
2023-05-28T07:42:47.979Z,4.50
2023-05-28T07:45:18.917Z,4.80
2023-05-28T07:47:46.587Z,4.33
2023-05-28T07:50:33.247Z,4.20
2023-05-28T07:53:10.123Z,5.17
2023-05-28T07:55:38.489Z,4.10
2023-05-28T07:58:07.191Z,4.20
2023-05-28T08:00:37.796Z,9.77
2023-05-28T08:03:08.104Z,5.00
2023-05-28T08:05:42.933Z,4.77
2023-05-28T08:08:10.619Z,4.43
2023-05-28T08:10:39.284Z,4.67
2023-05-28T08:13:07.190Z,4.53
2023-05-28T08:15:37.880Z,4.50
2023-05-28T08:18:07.504Z,5.00
2023-05-28T08:20:36.845Z,4.90
2023-05-28T08:23:31.750Z,5.00
2023-05-28T08:26:00.260Z,5.10
2023-05-28T08:28:32.383Z,5.87
2023-05-28T08:31:01.279Z,4.40
2023-05-28T08:33:42.013Z,4.47
2023-05-28T08:36:09.702Z,4.90
2023-05-28T08:38:37.699Z,4.67
2023-05-28T08:41:07.341Z,4.97
2023-05-28T08:43:35.068Z,4.83
2023-05-28T08:46:02.483Z,5.47
2023-05-28T08:48:41.226Z,5.33
2023-05-28T08:51:10.858Z,5.37
2023-05-28T08:53:47.053Z,5.37
2023-05-28T08:56:19.157Z,5.30
2023-05-28T08:58:47.931Z,4.73
2023-05-28T09:01:15.855Z,5.20
2023-05-28T09:04:05.413Z,5.30
2023-05-28T09:06:41.488Z,5.10
2023-05-28T09:09:15.866Z,4.43
2023-05-28T09:11:48.907Z,4.93
2023-05-28T09:14:20.438Z,5.30
2023-05-28T09:16:50.182Z,5.13
2023-05-28T09:19:21.706Z,5.20
2023-05-28T09:21:57.096Z,5.73
2023-05-28T09:24:29.815Z,4.90
2023-05-28T09:27:25.083Z,5.33
2023-05-28T09:29:54.548Z,6.70
2023-05-28T09:32:22.119Z,5.57
2023-05-28T09:34:52.502Z,5.37
2023-05-28T09:37:21.477Z,5.27
2023-05-28T09:40:01.678Z,5.33
2023-05-28T09:42:45.052Z,5.03
2023-05-28T09:45:12.900Z,5.93
2023-05-28T09:47:44.947Z,5.40
2023-05-28T09:50:13.812Z,5.50
2023-05-28T09:52:45.897Z,5.57
2023-05-28T09:55:21.780Z,6.77
2023-05-28T09:58:06.624Z,5.20
2023-05-28T10:00:36.842Z,4.87
2023-05-28T10:03:24.030Z,5.07
2023-05-28T10:06:00.785Z,5.23
2023-05-28T10:08:29.032Z,5.10
2023-05-28T10:10:56.988Z,6.10
2023-05-28T10:13:24.422Z,7.37
2023-05-28T10:15:54.784Z,5.77
2023-05-28T10:18:23.724Z,5.63
2023-05-28T10:20:51.941Z,5.77
2023-05-28T10:23:21.450Z,5.37
2023-05-28T10:25:49.048Z,5.87
2023-05-28T10:28:17.737Z,6.10
2023-05-28T10:30:45.091Z,5.80
2023-05-28T10:33:18.350Z,5.53
2023-05-28T10:36:04.109Z,5.63
2023-05-28T10:38:31.558Z,6.37
2023-05-28T10:41:04.234Z,5.63
2023-05-28T10:43:43.869Z,5.13
2023-05-28T10:46:24.139Z,6.17
2023-05-28T10:49:11.734Z,5.77
2023-05-28T10:51:55.407Z,5.60
2023-05-28T10:54:35.180Z,7.20
2023-05-28T10:57:11.009Z,5.37
2023-05-28T10:59:50.043Z,5.80
2023-05-28T11:02:27.136Z,6.07
2023-05-28T11:05:02.230Z,5.63
2023-05-28T11:07:41.877Z,6.03
2023-05-28T11:10:17.128Z,5.57
2023-05-28T11:12:46.343Z,5.67
2023-05-28T11:15:15.564Z,5.53
2023-05-28T11:17:45.475Z,5.70
2023-05-28T11:20:28.748Z,6.87
2023-05-28T11:22:56.850Z,6.87
2023-05-28T11:25:27.971Z,6.53
2023-05-28T11:27:58.617Z,5.67
2023-05-28T11:30:27.328Z,5.80
2023-05-28T11:32:55.954Z,5.23
2023-05-28T11:35:24.870Z,5.30
2023-05-28T11:37:54.217Z,5.77
2023-05-28T11:40:22.808Z,6.73
2023-05-28T11:42:53.220Z,6.97
2023-05-28T11:45:21.965Z,4.97
2023-05-28T11:47:49.887Z,4.77
2023-05-28T11:50:17.689Z,5.63
2023-05-28T11:52:46.731Z,6.70
2023-05-28T11:55:16.881Z,5.17
2023-05-28T11:58:01.964Z,5.60
2023-05-28T12:00:37.586Z,5.40
2023-05-28T12:03:06.406Z,4.70
2023-05-28T12:05:41.008Z,4.70
2023-05-28T12:08:11.689Z,5.80
2023-05-28T12:10:39.846Z,5.10
2023-05-28T12:13:08.259Z,5.33
2023-05-28T12:15:36.084Z,5.13
2023-05-28T12:18:04.913Z,5.00
2023-05-28T12:20:43.357Z,5.80
2023-05-28T12:23:14.050Z,7.63
2023-05-28T12:25:44.773Z,5.70
2023-05-28T12:28:15.523Z,6.00
2023-05-28T12:30:45.921Z,5.20
2023-05-28T12:33:14.320Z,5.47
2023-05-28T12:35:45.264Z,6.37
2023-05-28T12:38:14.918Z,5.40
2023-05-28T12:40:43.414Z,7.70
2023-05-28T12:43:11.726Z,5.67
2023-05-28T12:45:39.446Z,5.70
2023-05-28T12:48:09.634Z,5.53
2023-05-28T12:50:37.665Z,5.37
2023-05-28T12:53:08.656Z,5.27
2023-05-28T12:55:36.722Z,5.13
2023-05-28T12:58:05.822Z,5.27
2023-05-28T13:00:33.441Z,5.67
2023-05-28T13:03:03.737Z,4.87
2023-05-28T13:05:34.695Z,5.47
2023-05-28T13:08:03.024Z,6.17
2023-05-28T13:10:30.977Z,5.10
2023-05-28T13:12:58.578Z,5.30
2023-05-28T13:15:25.927Z,5.13
2023-05-28T13:17:53.407Z,5.37
2023-05-28T13:20:21.012Z,5.30
2023-05-28T13:22:48.404Z,6.53
2023-05-28T13:25:16.814Z,4.80
2023-05-28T13:27:45.736Z,4.67
2023-05-28T13:30:14.089Z,4.80
2023-05-28T13:32:43.006Z,4.93
2023-05-28T13:35:13.394Z,4.93
2023-05-28T13:37:42.029Z,4.70
2023-05-28T13:40:13.103Z,7.63
2023-05-28T13:42:42.177Z,4.97
2023-05-28T13:45:11.433Z,4.63
2023-05-28T13:47:41.137Z,4.97
2023-05-28T13:50:10.222Z,5.43
2023-05-28T13:52:39.291Z,5.03
2023-05-28T13:55:08.339Z,5.10
2023-05-28T13:57:37.236Z,4.53
2023-05-28T14:00:08.484Z,4.57
2023-05-28T14:02:42.663Z,4.97
2023-05-28T14:05:10.827Z,5.00
2023-05-28T14:07:39.238Z,5.97
2023-05-28T14:10:07.356Z,4.90
2023-05-28T14:12:35.714Z,5.73
2023-05-28T14:15:04.427Z,5.27
2023-05-28T14:17:32.862Z,5.63
2023-05-28T14:20:01.068Z,5.13
2023-05-28T14:22:29.915Z,5.00
2023-05-28T14:24:57.779Z,4.63
2023-05-28T14:27:25.570Z,4.57
2023-05-28T14:29:54.094Z,5.33
2023-05-28T14:32:22.907Z,5.97
2023-05-28T14:34:51.403Z,4.93
2023-05-28T14:37:20.093Z,4.90
2023-05-28T14:39:48.734Z,4.77
2023-05-28T14:42:17.633Z,5.23
2023-05-28T14:44:46.848Z,5.30
2023-05-28T14:47:15.204Z,4.93
2023-05-28T14:49:43.030Z,6.50
2023-05-28T14:52:27.990Z,5.50
2023-05-28T14:54:59.044Z,5.27
2023-05-28T14:57:28.970Z,6.40
2023-05-28T15:00:07.968Z,4.70
2023-05-28T15:02:35.621Z,5.27
2023-05-28T15:05:06.856Z,4.77
2023-05-28T15:07:36.463Z,4.23
2023-05-28T15:10:04.461Z,5.53
2023-05-28T15:12:32.045Z,5.73
2023-05-28T15:15:02.313Z,5.10
2023-05-28T15:17:29.637Z,5.57
2023-05-28T15:19:58.798Z,5.83
2023-05-28T15:22:27.486Z,5.57
2023-05-28T15:24:55.104Z,4.97
2023-05-28T15:27:22.819Z,4.70
2023-05-28T15:29:50.866Z,4.80
2023-05-28T15:32:19.774Z,4.53
2023-05-28T15:34:48.133Z,8.60
2023-05-28T15:37:15.925Z,4.47
2023-05-28T15:39:44.178Z,4.80
2023-05-28T15:42:13.808Z,4.73
2023-05-28T15:44:41.522Z,4.73
2023-05-28T15:47:09.072Z,4.90
2023-05-28T15:49:36.918Z,4.90
2023-05-28T15:52:05.232Z,4.93
2023-05-28T15:54:32.995Z,4.40
2023-05-28T15:57:01.097Z,4.70
2023-05-28T15:59:29.780Z,4.27
2023-05-28T16:01:59.507Z,4.97
2023-05-28T16:04:30.621Z,4.97
2023-05-28T16:06:59.063Z,5.07
2023-05-28T16:09:26.868Z,4.90
2023-05-28T16:11:57.590Z,4.50
2023-05-28T16:14:29.903Z,4.53
2023-05-28T16:16:57.640Z,5.00
2023-05-28T16:19:25.148Z,4.77
2023-05-28T16:21:52.992Z,4.57
2023-05-28T16:24:20.752Z,4.60
2023-05-28T16:26:52.434Z,4.67
2023-05-28T16:29:20.196Z,4.70
2023-05-28T16:31:49.542Z,4.83
2023-05-28T16:34:20.365Z,4.43
2023-05-28T16:37:19.232Z,4.53
2023-05-28T16:39:48.327Z,4.77
2023-05-28T16:42:16.249Z,4.40
2023-05-28T16:44:45.042Z,4.70
2023-05-28T16:47:14.074Z,4.43
2023-05-28T16:49:41.719Z,4.80
2023-05-28T16:52:12.540Z,4.83
2023-05-28T16:54:41.809Z,4.40
2023-05-28T16:57:09.187Z,4.70
2023-05-28T16:59:39.475Z,4.30
2023-05-28T17:02:07.518Z,4.40
2023-05-28T17:12:52.478Z,5.13
2023-05-28T17:15:21.256Z,5.17
2023-05-28T17:23:27.017Z,4.70
2023-05-28T17:25:55.722Z,4.67
2023-05-28T17:28:24.353Z,4.80
2023-05-28T17:33:37.210Z,4.90
2023-05-28T17:36:05.361Z,4.73
2023-05-28T17:38:38.491Z,4.90
2023-05-28T17:41:06.072Z,4.87
2023-05-28T17:43:34.594Z,5.30
2023-05-28T17:46:04.591Z,5.10
2023-05-28T17:48:32.483Z,4.87
2023-05-28T17:51:00.213Z,4.73
2023-05-28T17:53:32.551Z,5.43
2023-05-28T17:56:04.546Z,4.83
2023-05-28T17:58:31.918Z,5.20
2023-05-28T18:00:59.385Z,4.50
2023-05-28T18:03:27.267Z,4.90
2023-05-28T18:05:55.238Z,5.43
2023-05-28T18:08:24.647Z,4.73
2023-05-28T18:10:57.550Z,4.93
2023-05-28T18:13:27.148Z,4.67
2023-05-28T18:15:56.855Z,5.13
2023-05-28T18:18:25.827Z,5.13
2023-05-28T18:20:54.918Z,4.80
2023-05-28T18:23:22.919Z,4.37
2023-05-28T18:25:50.631Z,4.97
2023-05-28T18:28:18.019Z,4.33
2023-05-28T18:30:46.338Z,4.90
2023-05-28T18:33:15.063Z,5.33
2023-05-28T18:35:43.327Z,5.43
2023-05-28T18:38:12.173Z,5.20
2023-05-28T18:40:40.451Z,5.57
2023-05-28T18:43:08.857Z,5.07
2023-05-28T18:45:36.404Z,5.47
2023-05-28T18:48:05.337Z,6.03
2023-05-28T18:50:33.392Z,5.77
2023-05-28T18:53:01.932Z,5.33
2023-05-28T18:55:29.375Z,5.43
2023-05-28T18:57:56.721Z,5.17
2023-05-28T19:03:05.747Z,6.00
2023-05-28T19:05:33.125Z,5.50
2023-05-28T19:08:00.815Z,5.07
2023-05-28T19:10:28.133Z,4.97
2023-05-28T19:12:55.724Z,5.30
2023-05-28T19:15:23.362Z,5.53
2023-05-28T19:20:32.501Z,5.67
2023-05-28T19:23:00.004Z,5.53
2023-05-28T19:25:27.692Z,5.47
2023-05-28T19:27:55.007Z,5.70
2023-05-28T19:30:22.442Z,5.43
2023-05-28T19:32:50.042Z,5.67
2023-05-28T19:38:04.647Z,5.73
2023-05-28T19:43:23.009Z,6.53
2023-05-28T19:45:50.553Z,6.57
2023-05-28T19:48:17.986Z,6.90
2023-05-28T19:50:45.655Z,6.07
2023-05-28T19:53:13.109Z,6.37
2023-05-28T19:55:40.482Z,6.40
2023-05-28T19:58:09.431Z,5.80
2023-05-28T20:00:39.791Z,6.37
2023-05-28T20:03:07.557Z,6.20
2023-05-28T20:05:34.996Z,6.43
2023-05-28T20:08:02.316Z,6.10
2023-05-28T20:10:29.716Z,6.43
2023-05-28T20:12:57.017Z,5.90
2023-05-28T20:18:06.702Z,6.03
2023-05-28T20:23:27.941Z,5.90
2023-05-28T20:25:55.709Z,5.87
2023-05-28T20:28:23.383Z,5.50
2023-05-28T20:30:50.917Z,5.10
2023-05-28T20:33:18.239Z,5.37
2023-05-28T20:35:46.177Z,6.33
2023-05-28T20:38:13.755Z,5.57
2023-05-28T20:40:41.125Z,5.47
2023-05-28T20:43:08.737Z,5.67
2023-05-28T20:45:37.475Z,5.23
2023-05-28T20:48:05.431Z,5.53
2023-05-28T20:50:35.009Z,4.80
2023-05-28T20:53:03.792Z,5.37
2023-05-28T20:55:31.248Z,5.10
2023-05-28T20:58:01.127Z,5.50
2023-05-28T21:00:29.043Z,5.80
2023-05-28T21:02:58.526Z,5.07
2023-05-28T21:05:26.180Z,5.73
2023-05-28T21:07:53.679Z,5.23
2023-05-28T21:10:21.378Z,5.57
2023-05-28T21:12:49.051Z,5.63
2023-05-28T21:15:16.488Z,5.17
2023-05-28T21:17:44.189Z,4.80
2023-05-28T21:20:12.446Z,5.03
2023-05-28T21:22:39.940Z,5.53
2023-05-28T21:27:52.175Z,5.90
2023-05-28T21:30:19.482Z,5.40
2023-05-28T21:32:47.630Z,5.53
2023-05-28T21:35:15.449Z,6.20
2023-05-28T21:37:44.228Z,5.47
2023-05-28T21:40:11.845Z,5.93
2023-05-28T21:42:39.531Z,5.50
2023-05-28T21:45:12.028Z,5.87
2023-05-28T21:50:25.731Z,5.80
2023-05-28T21:53:04.521Z,5.80
2023-05-28T21:55:32.185Z,5.80
2023-05-28T21:57:59.632Z,5.87
2023-05-28T22:00:28.438Z,6.40
2023-05-28T22:02:55.976Z,6.33
2023-05-28T22:05:24.384Z,6.13
2023-05-28T22:10:33.614Z,5.90
2023-05-28T22:13:02.750Z,6.40
2023-05-28T22:15:30.386Z,6.23
2023-05-28T22:17:59.031Z,6.33
2023-05-28T22:20:41.780Z,5.43
2023-05-28T22:23:10.886Z,7.30
2023-05-28T22:25:42.354Z,6.47
2023-05-28T22:28:10.545Z,5.80
2023-05-28T22:30:38.040Z,6.73
2023-05-28T22:33:05.561Z,5.93
2023-05-28T22:35:32.989Z,5.70
2023-05-28T22:38:00.592Z,6.50
2023-05-28T22:40:31.239Z,6.40
2023-05-28T22:42:59.012Z,6.70
2023-05-28T22:45:26.365Z,6.07
2023-05-28T22:47:56.871Z,6.73
2023-05-28T22:50:24.481Z,5.90
2023-05-28T22:52:52.016Z,6.03
2023-05-28T22:55:19.546Z,5.93
2023-05-28T22:57:47.069Z,6.87
2023-05-28T23:00:15.278Z,6.93
2023-05-28T23:02:46.143Z,6.70
2023-05-28T23:05:14.625Z,6.30
2023-05-28T23:07:43.143Z,6.90
2023-05-28T23:10:11.151Z,7.60
2023-05-28T23:12:38.754Z,7.10
2023-05-28T23:15:06.696Z,7.10
2023-05-28T23:17:36.787Z,7.27
2023-05-28T23:20:09.404Z,6.87
2023-05-28T23:22:37.484Z,7.20
2023-05-28T23:25:05.324Z,6.80
2023-05-28T23:27:32.678Z,7.03
2023-05-28T23:29:59.962Z,7.40
2023-05-28T23:32:27.380Z,6.53
2023-05-28T23:34:54.662Z,7.20
2023-05-28T23:37:21.976Z,7.30
2023-05-28T23:39:49.643Z,6.87
2023-05-28T23:42:16.968Z,7.03
2023-05-28T23:44:44.329Z,6.97
2023-05-28T23:47:11.681Z,6.37
2023-05-28T23:52:29.243Z,6.60
2023-05-28T23:54:56.628Z,6.43
2023-05-28T23:57:23.984Z,6.80
2023-05-28T23:59:51.262Z,6.90
